Time;durP1;ratioP1;P1;durP2;ratioP2;P2;SDS_P1;SDS_P2;PMS_P1;PMS_P2;Temp;Humidity;BMP_temperature;BMP_pressure;BME280_temperature;BME280_humidity;BME280_pressure;Samples;Min_cycle;Max_cycle;Signal;HPM_P1;HPM_P2
2024/03/31 00:00:12;;;;;;;24.63;10.38;;;9.60;99.90;;;;;;5023151;28;20033;-95
2024/03/31 00:02:39;;;;;;;20.77;8.30;;;9.50;99.90;;;;;;5019896;28;20126;-94
2024/03/31 00:05:06;;;;;;;23.40;8.90;;;9.50;99.90;;;;;;5026135;28;20058;-95
2024/03/31 00:07:32;;;;;;;20.38;9.73;;;9.50;99.90;;;;;;5010145;28;20034;-96
2024/03/31 00:09:58;;;;;;;19.65;9.38;;;9.50;99.90;;;;;;5025078;28;20030;-95
2024/03/31 00:12:24;;;;;;;23.67;8.70;;;9.40;99.90;;;;;;5012692;28;20036;-96
2024/03/31 00:14:52;;;;;;;15.40;8.57;;;9.40;99.90;;;;;;5025866;28;20045;-95
2024/03/31 00:17:18;;;;;;;18.42;7.97;;;9.50;99.90;;;;;;5004267;28;20052;-95
2024/03/31 00:19:47;;;;;;;15.55;7.30;;;9.50;99.90;;;;;;5010406;28;20033;-94
2024/03/31 00:22:13;;;;;;;19.95;6.57;;;9.50;99.90;;;;;;5010152;28;20068;-95
2024/03/31 00:24:47;;;;;;;22.70;8.90;;;9.50;99.90;;;;;;5004335;28;20030;-94
2024/03/31 00:27:13;;;;;;;17.73;8.60;;;9.50;99.90;;;;;;5024858;28;20055;-96
2024/03/31 00:29:44;;;;;;;13.85;7.57;;;9.40;99.90;;;;;;5035170;28;20621;-96
2024/03/31 00:32:23;;;;;;;16.50;8.23;;;9.40;99.90;;;;;;5010671;28;20034;-96
2024/03/31 00:35:11;;;;;;;18.58;8.80;;;9.40;99.90;;;;;;5026725;28;20018;-95
2024/03/31 00:37:37;;;;;;;21.58;8.98;;;9.40;99.90;;;;;;5015340;28;20025;-96
2024/03/31 00:40:06;;;;;;;25.15;9.07;;;9.40;99.90;;;;;;5012131;28;20048;-95
2024/03/31 00:42:35;;;;;;;18.88;9.98;;;9.40;99.90;;;;;;5031245;28;20025;-94
2024/03/31 00:45:07;;;;;;;21.23;8.27;;;9.40;99.90;;;;;;5008485;28;20064;-96
2024/03/31 00:47:38;;;;;;;18.00;8.38;;;9.40;99.90;;;;;;5021038;28;20017;-95
2024/03/31 00:50:04;;;;;;;18.08;7.97;;;9.40;99.90;;;;;;5028151;28;20057;-95
2024/03/31 00:52:31;;;;;;;18.45;8.32;;;9.40;99.90;;;;;;5012234;28;20065;-95
2024/03/31 00:55:22;;;;;;;15.20;7.90;;;9.40;99.90;;;;;;5004600;28;20191;-95
2024/03/31 00:58:01;;;;;;;18.48;8.75;;;9.30;99.90;;;;;;5007419;28;20025;-96
2024/03/31 01:03:30;;;;;;;16.67;8.40;;;9.40;99.90;;;;;;5013918;28;20054;-96
2024/03/31 01:06:10;;;;;;;21.88;8.27;;;9.40;99.90;;;;;;5030064;28;20031;-95
2024/03/31 01:08:45;;;;;;;21.83;8.35;;;9.40;99.90;;;;;;5025375;28;20006;-95
2024/03/31 01:11:22;;;;;;;23.70;9.07;;;9.50;99.90;;;;;;4999957;28;20070;-96
2024/03/31 01:13:51;;;;;;;18.90;7.55;;;9.50;99.90;;;;;;5010748;28;20340;-95
2024/03/31 01:16:22;;;;;;;16.30;7.22;;;9.50;99.90;;;;;;5024506;28;20025;-96
2024/03/31 01:19:00;;;;;;;17.20;7.60;;;9.50;99.90;;;;;;5012416;28;20027;-94
2024/03/31 01:21:31;;;;;;;19.88;8.30;;;9.50;99.90;;;;;;5015100;28;20085;-95
2024/03/31 01:24:01;;;;;;;14.85;7.18;;;9.50;99.90;;;;;;5021203;28;20033;-95
2024/03/31 01:26:36;;;;;;;20.23;7.38;;;9.40;99.90;;;;;;5044944;28;20119;-95
2024/03/31 01:29:11;;;;;;;11.48;7.57;;;9.50;99.90;;;;;;5034303;28;20074;-95
2024/03/31 01:31:42;;;;;;;18.35;8.02;;;9.50;99.90;;;;;;5009400;28;20061;-95
2024/03/31 01:34:08;;;;;;;18.05;8.57;;;9.50;99.90;;;;;;5033896;28;20033;-94
2024/03/31 01:36:37;;;;;;;15.88;7.63;;;9.50;99.90;;;;;;5015254;28;20022;-94
2024/03/31 01:39:09;;;;;;;21.95;7.32;;;9.60;99.90;;;;;;5015772;28;20029;-95
2024/03/31 01:41:44;;;;;;;18.02;8.55;;;9.60;99.90;;;;;;5033189;28;20113;-94
2024/03/31 01:44:40;;;;;;;18.70;7.80;;;9.60;99.90;;;;;;5015898;28;20030;-96
2024/03/31 01:47:05;;;;;;;24.05;9.23;;;9.60;99.90;;;;;;5018874;28;20035;-95
2024/03/31 01:49:32;;;;;;;17.15;8.98;;;9.60;99.90;;;;;;5009817;28;20037;-95
2024/03/31 01:52:04;;;;;;;22.35;8.70;;;9.60;99.90;;;;;;5020357;28;20042;-96
2024/03/31 01:54:37;;;;;;;14.65;7.20;;;9.60;99.90;;;;;;5020597;28;20095;-95
2024/03/31 01:57:33;;;;;;;16.02;7.93;;;9.50;99.90;;;;;;5012371;28;20026;-95
2024/03/31 01:59:59;;;;;;;16.27;6.38;;;9.50;99.90;;;;;;5029190;28;20038;-96
2024/03/31 02:02:25;;;;;;;15.35;7.40;;;9.50;99.90;;;;;;5030413;28;20045;-94
2024/03/31 02:04:51;;;;;;;16.02;7.18;;;9.50;99.90;;;;;;5011976;28;20030;-96
2024/03/31 02:07:18;;;;;;;14.82;7.57;;;9.40;99.90;;;;;;5012050;28;20050;-96
2024/03/31 02:09:47;;;;;;;17.02;6.28;;;9.40;99.90;;;;;;5032016;28;20033;-95
2024/03/31 02:12:36;;;;;;;20.92;7.35;;;9.40;99.90;;;;;;5017929;28;20036;-96
2024/03/31 02:15:05;;;;;;;22.95;7.25;;;9.40;99.90;;;;;;5010420;28;20689;-96
2024/03/31 02:17:33;;;;;;;14.15;7.55;;;9.40;99.90;;;;;;5027234;28;20018;-96
2024/03/31 02:19:59;;;;;;;15.20;7.25;;;9.50;99.90;;;;;;5007818;28;20022;-96
2024/03/31 02:22:24;;;;;;;16.08;7.13;;;9.40;99.90;;;;;;5029670;28;20034;-95
2024/03/31 02:24:50;;;;;;;18.83;7.03;;;9.50;99.90;;;;;;5013872;28;20042;-96
2024/03/31 02:27:21;;;;;;;16.10;7.72;;;9.50;99.90;;;;;;5036285;28;20035;-95
2024/03/31 02:29:53;;;;;;;14.52;6.75;;;9.50;99.90;;;;;;5036097;28;20026;-96
2024/03/31 02:32:24;;;;;;;17.63;7.35;;;9.50;99.90;;;;;;5033568;28;20033;-96
2024/03/31 02:34:52;;;;;;;19.52;7.50;;;9.40;99.90;;;;;;5035096;28;20059;-95
2024/03/31 02:37:18;;;;;;;20.20;8.13;;;9.40;99.90;;;;;;5029792;28;20053;-96
2024/03/31 02:39:46;;;;;;;21.23;8.40;;;9.40;99.90;;;;;;5036295;28;20090;-95
2024/03/31 02:42:12;;;;;;;17.40;8.02;;;9.40;99.90;;;;;;5020197;28;20014;-96
2024/03/31 02:44:37;;;;;;;17.83;9.55;;;9.40;99.90;;;;;;5010468;28;20030;-96
2024/03/31 02:47:08;;;;;;;12.45;6.88;;;9.50;99.90;;;;;;5032374;28;20090;-96
2024/03/31 02:49:36;;;;;;;17.33;7.70;;;9.50;99.90;;;;;;5022050;28;20024;-96
2024/03/31 02:52:02;;;;;;;13.60;7.63;;;9.40;99.90;;;;;;5014191;28;20025;-96
2024/03/31 02:54:28;;;;;;;22.00;7.97;;;9.40;99.90;;;;;;5006041;28;20037;-95
2024/03/31 02:56:54;;;;;;;21.08;7.88;;;9.40;99.90;;;;;;5014200;28;20072;-94
2024/03/31 02:59:22;;;;;;;19.67;8.13;;;9.40;99.90;;;;;;5023212;28;20026;-95
2024/03/31 03:01:47;;;;;;;15.38;8.10;;;9.40;99.90;;;;;;5009972;28;20018;-95
2024/03/31 03:04:14;;;;;;;20.98;8.27;;;9.30;99.90;;;;;;5032373;28;20056;-94
2024/03/31 03:06:40;;;;;;;16.92;6.97;;;9.30;99.90;;;;;;5027095;28;20065;-94
2024/03/31 03:09:06;;;;;;;21.88;9.13;;;9.40;99.90;;;;;;5035226;28;20033;-95
2024/03/31 03:11:31;;;;;;;17.65;8.45;;;9.30;99.90;;;;;;5029325;28;20037;-95
2024/03/31 03:13:57;;;;;;;29.05;10.05;;;9.30;99.90;;;;;;5012926;28;20103;-96
2024/03/31 03:16:24;;;;;;;23.27;8.60;;;9.30;99.90;;;;;;5006003;28;20018;-95
2024/03/31 03:18:51;;;;;;;20.33;8.45;;;9.20;99.90;;;;;;5030447;28;20026;-94
2024/03/31 03:21:17;;;;;;;19.92;8.65;;;9.20;99.90;;;;;;5024278;28;20096;-95
2024/03/31 03:23:42;;;;;;;15.75;8.40;;;9.20;99.90;;;;;;5021772;28;20025;-95
2024/03/31 03:26:08;;;;;;;17.92;9.13;;;9.20;99.90;;;;;;5031322;28;20049;-95
2024/03/31 03:28:34;;;;;;;16.25;8.50;;;9.20;99.90;;;;;;5025503;28;20034;-95
2024/03/31 03:31:04;;;;;;;16.70;8.35;;;9.20;99.90;;;;;;5012273;28;20189;-94
2024/03/31 03:33:29;;;;;;;17.85;7.53;;;9.20;99.90;;;;;;5015664;28;20026;-95
2024/03/31 03:35:55;;;;;;;21.55;9.60;;;9.20;99.90;;;;;;5026076;28;20032;-95
2024/03/31 03:38:21;;;;;;;14.50;7.97;;;9.20;99.90;;;;;;5019465;28;20056;-94
2024/03/31 03:40:46;;;;;;;15.30;7.38;;;9.20;99.90;;;;;;5015434;28;20102;-94
2024/03/31 03:43:13;;;;;;;16.98;7.70;;;9.20;99.90;;;;;;5028915;28;20030;-94
2024/03/31 03:45:38;;;;;;;14.23;7.82;;;9.30;99.90;;;;;;5015442;28;20030;-94
2024/03/31 03:48:05;;;;;;;18.73;8.02;;;9.30;99.90;;;;;;5025241;28;20009;-95
2024/03/31 03:50:36;;;;;;;17.02;7.72;;;9.20;99.90;;;;;;5020201;28;20081;-94
2024/03/31 03:53:04;;;;;;;20.02;7.85;;;9.30;99.90;;;;;;5012418;28;20057;-94
2024/03/31 03:55:30;;;;;;;14.43;7.32;;;9.20;99.90;;;;;;5031904;28;20052;-95
2024/03/31 03:57:56;;;;;;;15.73;7.18;;;9.20;99.90;;;;;;5022090;28;20030;-94
2024/03/31 04:00:21;;;;;;;15.48;7.35;;;9.20;99.90;;;;;;5020877;28;20041;-94
2024/03/31 04:02:50;;;;;;;17.88;7.80;;;9.20;99.90;;;;;;5025912;28;20030;-94
2024/03/31 04:05:16;;;;;;;23.05;7.28;;;9.20;99.90;;;;;;5012046;28;20040;-94
2024/03/31 04:07:45;;;;;;;18.63;8.35;;;9.30;99.90;;;;;;5008162;28;20094;-95
2024/03/31 04:10:13;;;;;;;14.85;6.63;;;9.30;99.90;;;;;;5028733;28;20037;-95
2024/03/31 04:12:42;;;;;;;12.35;6.60;;;9.30;99.90;;;;;;5007787;28;20022;-96
2024/03/31 04:15:07;;;;;;;11.27;6.28;;;9.30;99.90;;;;;;5026018;28;20085;-94
2024/03/31 04:17:37;;;;;;;19.90;8.02;;;9.20;99.90;;;;;;5035037;28;20018;-94
2024/03/31 04:20:03;;;;;;;13.13;7.65;;;9.20;99.90;;;;;;5006694;28;20076;-94
2024/03/31 04:22:29;;;;;;;14.23;5.90;;;9.10;99.90;;;;;;5026760;28;20492;-93
2024/03/31 04:24:55;;;;;;;18.85;6.53;;;9.10;99.90;;;;;;5011905;28;20026;-94
2024/03/31 04:27:21;;;;;;;14.75;5.95;;;9.10;99.90;;;;;;5028888;28;20112;-95
2024/03/31 04:29:47;;;;;;;16.98;6.18;;;9.10;99.90;;;;;;5028615;28;20420;-95
2024/03/31 04:32:16;;;;;;;14.13;6.68;;;9.00;99.90;;;;;;5024598;28;20079;-94
2024/03/31 04:34:42;;;;;;;14.18;7.32;;;9.00;99.90;;;;;;5027523;28;20052;-94
2024/03/31 04:37:08;;;;;;;14.90;6.70;;;9.00;99.90;;;;;;5009168;28;20026;-94
2024/03/31 04:39:33;;;;;;;12.68;8.18;;;9.00;99.90;;;;;;5015982;28;20029;-92
2024/03/31 04:41:59;;;;;;;13.65;7.80;;;8.90;99.90;;;;;;5013670;28;20061;-91
2024/03/31 04:44:25;;;;;;;14.27;6.80;;;8.90;99.90;;;;;;5024592;28;20090;-91
2024/03/31 04:46:51;;;;;;;13.65;7.20;;;8.90;99.90;;;;;;5016378;28;20069;-92
2024/03/31 04:49:17;;;;;;;13.63;7.30;;;8.90;99.90;;;;;;4999573;28;20228;-93
2024/03/31 04:51:43;;;;;;;14.63;6.20;;;8.80;99.90;;;;;;5034331;28;20033;-93
2024/03/31 04:54:12;;;;;;;14.05;6.78;;;8.80;99.90;;;;;;5010822;28;20053;-93
2024/03/31 04:56:37;;;;;;;12.25;9.00;;;8.80;99.90;;;;;;5020885;28;20125;-91
2024/03/31 04:59:03;;;;;;;17.33;7.50;;;8.80;99.90;;;;;;5012567;28;20026;-95
2024/03/31 05:01:41;;;;;;;15.60;7.25;;;8.70;99.90;;;;;;5018924;28;20120;-94
2024/03/31 05:04:12;;;;;;;14.60;10.30;;;8.60;99.90;;;;;;5022003;28;20037;-94
2024/03/31 05:06:38;;;;;;;17.50;7.22;;;8.50;99.90;;;;;;5024010;28;20026;-93
2024/03/31 05:09:07;;;;;;;15.57;7.32;;;8.50;99.90;;;;;;5004323;28;20026;-94
2024/03/31 05:11:33;;;;;;;15.90;7.38;;;8.40;99.90;;;;;;4998526;28;20053;-94
2024/03/31 05:13:59;;;;;;;15.95;8.27;;;8.50;99.90;;;;;;5016790;28;20037;-91
2024/03/31 05:16:24;;;;;;;18.25;8.45;;;8.50;99.90;;;;;;5018079;28;20022;-94
2024/03/31 05:18:54;;;;;;;14.38;8.43;;;8.50;99.90;;;;;;5021786;28;20026;-94
2024/03/31 05:21:23;;;;;;;17.55;7.75;;;8.50;99.90;;;;;;5027833;28;20070;-94
2024/03/31 05:23:48;;;;;;;16.20;9.43;;;8.50;99.90;;;;;;5025029;28;20131;-92
2024/03/31 05:26:19;;;;;;;17.70;8.00;;;8.50;99.90;;;;;;5026630;28;20030;-94
2024/03/31 05:28:51;;;;;;;13.38;7.32;;;8.50;99.90;;;;;;5008683;28;20073;-95
2024/03/31 05:31:17;;;;;;;18.92;9.68;;;8.40;99.90;;;;;;5025967;28;20046;-94
2024/03/31 05:33:43;;;;;;;15.65;8.43;;;8.30;99.90;;;;;;5023803;28;20033;-95
2024/03/31 05:36:14;;;;;;;17.30;8.05;;;8.30;99.90;;;;;;5023240;28;20018;-93
2024/03/31 05:38:48;;;;;;;16.92;7.10;;;8.40;99.90;;;;;;5025598;28;20061;-95
2024/03/31 05:41:16;;;;;;;13.85;7.15;;;8.40;99.90;;;;;;5007445;28;20028;-94
2024/03/31 05:43:45;;;;;;;14.18;8.00;;;8.40;99.90;;;;;;5024478;28;20053;-94
2024/03/31 05:46:23;;;;;;;19.65;9.27;;;8.50;99.90;;;;;;5006773;28;20034;-94
2024/03/31 05:48:59;;;;;;;16.00;7.43;;;8.50;99.90;;;;;;5039203;28;20287;-93
2024/03/31 05:51:25;;;;;;;17.98;9.27;;;8.40;99.90;;;;;;5024202;28;20114;-94
2024/03/31 05:53:51;;;;;;;17.30;9.05;;;8.50;99.90;;;;;;5024176;28;20026;-94
2024/03/31 05:56:19;;;;;;;19.15;8.52;;;8.60;99.90;;;;;;5025578;28;20049;-94
2024/03/31 05:58:51;;;;;;;18.10;8.68;;;8.60;99.90;;;;;;5008702;28;20041;-94
2024/03/31 06:01:18;;;;;;;17.83;9.15;;;8.60;99.90;;;;;;5007742;28;20026;-94
2024/03/31 06:04:06;;;;;;;16.38;7.68;;;8.70;99.90;;;;;;5031849;28;20118;-92
2024/03/31 06:06:34;;;;;;;20.42;8.52;;;8.80;99.90;;;;;;5017690;28;20022;-93
2024/03/31 06:09:05;;;;;;;20.00;8.77;;;8.80;99.90;;;;;;5028819;28;20118;-93
2024/03/31 06:11:43;;;;;;;18.10;7.90;;;8.90;99.90;;;;;;5011714;28;20049;-94
2024/03/31 06:14:09;;;;;;;11.35;6.38;;;9.00;99.90;;;;;;5030616;28;20440;-94
2024/03/31 06:16:37;;;;;;;17.50;8.48;;;9.00;99.90;;;;;;5027865;28;20038;-94
2024/03/31 06:19:10;;;;;;;15.77;7.35;;;9.00;99.90;;;;;;5010777;28;20026;-93
2024/03/31 06:21:36;;;;;;;17.02;8.65;;;9.00;99.90;;;;;;5011921;28;20025;-93
2024/03/31 06:24:02;;;;;;;16.63;8.23;;;9.00;99.90;;;;;;5013730;28;20034;-93
2024/03/31 06:26:30;;;;;;;22.75;9.18;;;9.00;99.90;;;;;;5006645;28;20040;-94
2024/03/31 06:28:56;;;;;;;15.55;7.68;;;9.00;99.90;;;;;;5013761;28;20030;-95
2024/03/31 06:31:24;;;;;;;16.48;7.90;;;9.00;99.90;;;;;;5024530;28;20056;-94
2024/03/31 06:33:50;;;;;;;18.15;7.68;;;9.10;99.90;;;;;;5005240;28;20057;-93
2024/03/31 06:36:25;;;;;;;13.95;8.10;;;9.20;99.90;;;;;;5026787;28;20045;-94
2024/03/31 06:38:53;;;;;;;17.23;7.30;;;9.20;99.90;;;;;;5006419;28;20804;-93
2024/03/31 06:41:32;;;;;;;18.55;7.45;;;9.30;99.90;;;;;;5009613;28;20029;-93
2024/03/31 06:44:04;;;;;;;13.15;6.43;;;9.40;99.90;;;;;;5009685;28;20010;-95
2024/03/31 06:46:47;;;;;;;16.60;7.30;;;9.50;99.90;;;;;;5026226;28;21049;-95
2024/03/31 06:49:22;;;;;;;14.68;6.18;;;9.70;99.90;;;;;;5026269;28;20033;-94
2024/03/31 06:51:51;;;;;;;14.13;6.43;;;9.80;99.90;;;;;;5035264;28;20026;-94
2024/03/31 06:54:16;;;;;;;13.70;6.32;;;9.80;99.90;;;;;;5009222;28;20053;-93
2024/03/31 06:56:42;;;;;;;16.55;7.00;;;9.90;99.90;;;;;;5008479;28;20030;-93
2024/03/31 06:59:14;;;;;;;17.88;6.70;;;10.00;99.90;;;;;;5026488;28;20018;-93
2024/03/31 07:01:40;;;;;;;9.80;4.63;;;10.10;99.90;;;;;;5010836;28;20028;-92
2024/03/31 07:04:08;;;;;;;13.55;3.70;;;10.20;99.90;;;;;;5018019;28;20321;-94
2024/03/31 07:06:34;;;;;;;13.30;4.30;;;10.30;99.90;;;;;;5026066;28;20510;-94
2024/03/31 07:09:01;;;;;;;13.52;4.80;;;10.40;99.90;;;;;;5024798;28;20061;-93
2024/03/31 07:11:32;;;;;;;9.20;4.35;;;10.50;99.90;;;;;;5006940;28;20030;-94
2024/03/31 07:14:01;;;;;;;13.02;4.63;;;10.60;99.90;;;;;;5023847;28;20086;-95
2024/03/31 07:16:29;;;;;;;13.50;4.13;;;10.70;99.90;;;;;;5024050;28;20033;-94
2024/03/31 07:18:55;;;;;;;12.68;3.13;;;10.80;99.90;;;;;;5004996;28;20023;-94
2024/03/31 07:21:24;;;;;;;9.02;2.78;;;10.80;99.90;;;;;;5024921;28;20038;-94
2024/03/31 07:24:01;;;;;;;10.38;2.95;;;10.80;99.90;;;;;;5014381;28;20033;-95
2024/03/31 07:26:30;;;;;;;7.63;2.35;;;10.90;99.90;;;;;;5023763;28;20025;-94
2024/03/31 07:28:56;;;;;;;8.15;3.60;;;11.00;99.90;;;;;;5022219;28;20041;-94
2024/03/31 07:31:24;;;;;;;13.15;4.30;;;11.10;99.90;;;;;;5004999;28;20029;-94
2024/03/31 07:33:50;;;;;;;15.52;3.78;;;11.10;99.90;;;;;;5025066;28;20557;-95
2024/03/31 07:36:34;;;;;;;10.80;2.35;;;11.20;99.90;;;;;;5020866;28;20053;-94
2024/03/31 07:39:09;;;;;;;8.27;2.60;;;11.30;99.90;;;;;;5003427;28;20083;-94
2024/03/31 07:41:35;;;;;;;7.20;2.60;;;11.30;99.90;;;;;;5020955;28;20026;-92
2024/03/31 07:44:06;;;;;;;11.48;2.97;;;11.40;99.90;;;;;;5026379;28;20030;-95
2024/03/31 07:46:32;;;;;;;9.18;2.17;;;11.40;99.90;;;;;;5002688;28;20049;-94
2024/03/31 07:48:57;;;;;;;11.02;2.45;;;11.60;99.90;;;;;;5021459;28;20503;-94
2024/03/31 07:51:23;;;;;;;9.23;2.63;;;11.60;99.90;;;;;;5020228;28;20045;-93
2024/03/31 07:53:49;;;;;;;10.45;3.10;;;11.80;99.90;;;;;;5020469;28;20022;-93
2024/03/31 07:56:14;;;;;;;11.95;3.40;;;11.90;99.90;;;;;;5020039;28;20030;-94
2024/03/31 07:58:53;;;;;;;11.07;2.85;;;12.10;99.90;;;;;;5017048;28;20022;-93
2024/03/31 08:01:27;;;;;;;8.48;2.45;;;12.10;99.90;;;;;;5000850;28;20030;-95
2024/03/31 08:03:59;;;;;;;11.10;3.72;;;12.10;99.90;;;;;;5020116;28;20025;-93
2024/03/31 08:06:25;;;;;;;10.65;2.20;;;12.20;99.90;;;;;;5001894;28;20026;-94
2024/03/31 08:08:54;;;;;;;8.77;2.40;;;12.20;99.90;;;;;;5020357;28;20029;-93
2024/03/31 08:11:19;;;;;;;11.20;2.83;;;12.40;99.90;;;;;;5002088;28;20053;-93
2024/03/31 08:13:45;;;;;;;7.50;2.55;;;12.60;99.90;;;;;;5018590;28;20034;-94
2024/03/31 08:16:13;;;;;;;7.78;2.35;;;12.70;99.90;;;;;;5018239;28;20087;-93
2024/03/31 08:18:42;;;;;;;11.05;2.13;;;12.80;99.90;;;;;;5018615;28;20026;-93
2024/03/31 08:21:08;;;;;;;8.60;1.83;;;12.80;99.90;;;;;;5018221;28;20575;-93
2024/03/31 08:23:34;;;;;;;6.50;2.53;;;12.80;99.90;;;;;;5010585;28;20029;-93
2024/03/31 08:26:02;;;;;;;12.98;2.00;;;12.80;99.90;;;;;;5018676;28;20041;-92
2024/03/31 08:28:30;;;;;;;10.43;2.38;;;12.90;99.90;;;;;;5018522;28;20030;-93
2024/03/31 08:31:02;;;;;;;7.78;2.45;;;13.00;99.90;;;;;;4999582;28;20718;-92
2024/03/31 08:33:27;;;;;;;8.00;2.22;;;13.30;99.00;;;;;;5007485;28;20489;-92
2024/03/31 08:35:54;;;;;;;10.90;3.45;;;13.40;99.90;;;;;;5002035;28;20040;-91
2024/03/31 08:38:20;;;;;;;10.90;3.50;;;13.60;98.80;;;;;;5000823;28;20030;-94
2024/03/31 08:40:58;;;;;;;6.47;1.70;;;13.80;97.50;;;;;;4999195;28;20026;-92
2024/03/31 08:43:27;;;;;;;7.75;1.92;;;13.90;96.70;;;;;;4999053;28;20113;-92
2024/03/31 08:45:53;;;;;;;11.23;2.22;;;14.10;94.60;;;;;;5017031;28;20082;-92
2024/03/31 08:48:20;;;;;;;10.27;2.25;;;14.00;95.20;;;;;;4999582;28;20042;-93
2024/03/31 08:50:47;;;;;;;7.82;2.00;;;14.20;95.90;;;;;;4999421;28;20030;-92
2024/03/31 08:53:13;;;;;;;7.80;2.42;;;14.40;92.90;;;;;;4999185;28;20029;-93
2024/03/31 08:55:39;;;;;;;12.55;2.15;;;14.70;94.20;;;;;;4998783;28;20030;-91
2024/03/31 08:58:07;;;;;;;14.65;2.25;;;14.90;89.00;;;;;;5016095;28;20103;-90
2024/03/31 09:00:36;;;;;;;6.57;1.42;;;15.10;89.60;;;;;;5016778;28;20064;-91
2024/03/31 09:03:04;;;;;;;10.10;2.30;;;15.10;87.20;;;;;;5016544;28;20033;-92
2024/03/31 09:05:31;;;;;;;13.32;2.80;;;15.10;84.80;;;;;;5016497;28;20030;-93
2024/03/31 09:07:57;;;;;;;8.43;2.90;;;15.10;84.00;;;;;;5016576;28;20034;-91
2024/03/31 09:10:23;;;;;;;10.55;2.40;;;15.10;86.90;;;;;;5015648;28;20048;-91
2024/03/31 09:12:49;;;;;;;8.75;2.30;;;15.10;85.70;;;;;;5016052;28;20045;-93
2024/03/31 09:15:15;;;;;;;7.93;2.38;;;15.00;85.20;;;;;;5016096;28;20030;-90
2024/03/31 09:17:41;;;;;;;7.82;2.03;;;15.00;85.50;;;;;;5016435;28;20038;-91
2024/03/31 09:20:07;;;;;;;8.30;2.03;;;15.00;85.30;;;;;;5014050;28;20017;-91
2024/03/31 09:22:37;;;;;;;5.25;1.52;;;15.00;85.20;;;;;;5018322;28;20028;-91
2024/03/31 09:25:03;;;;;;;7.55;2.00;;;14.90;84.00;;;;;;5016044;28;20040;-89
2024/03/31 09:27:29;;;;;;;7.57;1.77;;;14.70;83.20;;;;;;5015775;28;20022;-91
2024/03/31 09:29:58;;;;;;;11.23;2.10;;;14.70;84.80;;;;;;5016118;28;20068;-91
2024/03/31 09:32:25;;;;;;;7.57;2.72;;;14.80;83.50;;;;;;5015820;28;20030;-91
2024/03/31 09:34:51;;;;;;;8.13;2.65;;;14.80;83.50;;;;;;5016882;28;20025;-92
2024/03/31 09:37:16;;;;;;;5.35;1.45;;;14.80;83.60;;;;;;5025999;28;20514;-89
2024/03/31 09:39:43;;;;;;;7.35;1.83;;;14.80;82.60;;;;;;5022040;28;20024;-91
2024/03/31 09:42:10;;;;;;;5.00;1.67;;;14.80;83.90;;;;;;5014037;28;20077;-91
2024/03/31 09:44:37;;;;;;;9.50;2.08;;;14.90;83.10;;;;;;5020276;28;20681;-92
2024/03/31 09:47:12;;;;;;;6.47;2.00;;;15.10;82.50;;;;;;5019110;28;20022;-89
2024/03/31 09:49:43;;;;;;;11.10;2.47;;;15.40;83.50;;;;;;5003534;28;20061;-91
2024/03/31 09:52:12;;;;;;;9.30;1.63;;;15.70;76.90;;;;;;5020616;28;20018;-90
2024/03/31 09:54:51;;;;;;;8.77;1.33;;;15.90;76.90;;;;;;5021034;28;20029;-91
2024/03/31 09:57:23;;;;;;;10.55;2.65;;;16.00;74.50;;;;;;5018680;28;20075;-91
2024/03/31 10:00:00;;;;;;;6.70;1.58;;;16.00;73.30;;;;;;5019925;28;20034;-90
2024/03/31 10:02:26;;;;;;;8.13;1.67;;;16.30;74.90;;;;;;5026220;28;20050;-91
2024/03/31 10:05:11;;;;;;;9.38;2.22;;;16.40;71.60;;;;;;5017357;28;20017;-91
2024/03/31 10:07:40;;;;;;;10.18;3.10;;;16.50;71.30;;;;;;5026461;28;20033;-90
2024/03/31 10:10:07;;;;;;;8.07;2.08;;;16.60;74.00;;;;;;5009559;28;20406;-91
2024/03/31 10:12:44;;;;;;;6.82;2.22;;;16.90;71.80;;;;;;5000708;28;20025;-89
2024/03/31 10:15:11;;;;;;;8.95;2.80;;;16.80;68.00;;;;;;5016073;28;20069;-89
2024/03/31 10:17:39;;;;;;;9.23;1.90;;;16.60;70.30;;;;;;5016385;28;20053;-91
2024/03/31 10:20:08;;;;;;;15.00;1.60;;;16.50;70.60;;;;;;5002513;28;20022;-91
2024/03/31 10:22:34;;;;;;;6.50;2.35;;;16.60;70.80;;;;;;5016252;28;20160;-90
2024/03/31 10:25:00;;;;;;;10.63;1.98;;;16.80;70.80;;;;;;5018644;28;20072;-89
2024/03/31 10:27:28;;;;;;;10.23;2.10;;;17.20;69.10;;;;;;5019458;28;20057;-88
2024/03/31 10:29:55;;;;;;;11.18;2.28;;;17.50;69.70;;;;;;5019255;28;20447;-91
2024/03/31 10:32:21;;;;;;;8.23;2.58;;;17.60;68.40;;;;;;5025260;28;20117;-91
2024/03/31 10:34:48;;;;;;;14.57;1.73;;;17.80;66.00;;;;;;5020106;28;20546;-91
2024/03/31 10:37:16;;;;;;;9.23;2.40;;;17.90;67.20;;;;;;5017842;28;20033;-91
2024/03/31 10:39:47;;;;;;;15.18;2.53;;;18.20;65.50;;;;;;5018454;28;20026;-90
2024/03/31 10:42:12;;;;;;;7.90;1.70;;;18.40;63.20;;;;;;5018602;28;20026;-91
2024/03/31 10:44:39;;;;;;;12.27;2.20;;;18.40;62.60;;;;;;5018746;28;20141;-89
2024/03/31 10:47:06;;;;;;;12.32;2.97;;;18.40;62.30;;;;;;5018766;28;20052;-90
2024/03/31 10:49:36;;;;;;;6.78;1.80;;;18.50;62.00;;;;;;5018718;28;20030;-90
2024/03/31 10:52:02;;;;;;;12.07;2.40;;;18.60;62.80;;;;;;5017614;28;20254;-90
2024/03/31 10:54:36;;;;;;;13.68;1.73;;;18.70;62.00;;;;;;5017958;28;20026;-90
2024/03/31 10:57:10;;;;;;;10.77;2.17;;;18.90;64.40;;;;;;5018823;28;20029;-90
2024/03/31 10:59:41;;;;;;;9.10;2.05;;;19.30;59.80;;;;;;5019275;28;20025;-90
2024/03/31 11:02:11;;;;;;;9.85;1.92;;;19.50;59.10;;;;;;5000648;28;20026;-90
2024/03/31 11:04:37;;;;;;;9.93;2.60;;;19.40;58.30;;;;;;5021302;28;20052;-90
2024/03/31 11:07:11;;;;;;;7.72;1.70;;;19.30;56.90;;;;;;5022175;28;20029;-91
2024/03/31 11:09:38;;;;;;;7.80;1.50;;;19.10;57.80;;;;;;5018583;28;20022;-90
2024/03/31 11:12:06;;;;;;;7.97;1.92;;;18.90;58.90;;;;;;5015735;28;20033;-89
2024/03/31 11:14:33;;;;;;;6.40;1.65;;;18.80;58.50;;;;;;5017213;28;20083;-90
2024/03/31 11:17:00;;;;;;;;;;;18.80;58.10;;;;;;5017712;28;20022;-90
2024/03/31 11:19:26;;;;;;;8.98;1.85;;;18.70;58.60;;;;;;5000249;28;19909;-90
2024/03/31 11:22:02;;;;;;;8.88;1.48;;;18.80;58.60;;;;;;5017645;28;20440;-89
2024/03/31 11:24:34;;;;;;;12.38;2.67;;;18.70;59.40;;;;;;5017496;28;20049;-89
2024/03/31 11:27:01;;;;;;;13.95;3.85;;;18.90;57.10;;;;;;5017201;28;20037;-90
2024/03/31 11:29:28;;;;;;;9.07;2.97;;;18.80;56.00;;;;;;5017976;28;20036;-90
2024/03/31 11:31:54;;;;;;;12.95;1.95;;;18.70;56.90;;;;;;5016899;28;20504;-91
2024/03/31 11:34:20;;;;;;;11.98;1.73;;;18.50;59.00;;;;;;5018090;28;20028;-91
2024/03/31 11:36:46;;;;;;;12.13;2.17;;;18.40;57.10;;;;;;5031512;28;20071;-90
2024/03/31 11:39:12;;;;;;;10.02;2.85;;;18.40;59.60;;;;;;5001703;28;20026;-90
2024/03/31 11:41:38;;;;;;;9.30;1.73;;;18.30;57.80;;;;;;5018120;28;20044;-90
2024/03/31 11:44:04;;;;;;;10.23;2.53;;;18.40;57.20;;;;;;5020068;28;20030;-89
2024/03/31 11:46:30;;;;;;;17.05;2.33;;;18.80;55.00;;;;;;5017058;28;20034;-90
2024/03/31 11:48:59;;;;;;;11.68;2.45;;;19.20;56.00;;;;;;5017829;28;20108;-90
2024/03/31 11:51:26;;;;;;;15.00;3.65;;;19.40;52.70;;;;;;4998994;28;20030;-91
2024/03/31 11:53:53;;;;;;;11.13;1.95;;;19.30;53.70;;;;;;5017673;28;20026;-91
2024/03/31 11:56:19;;;;;;;11.70;2.63;;;19.50;52.10;;;;;;5023615;28;20028;-91
2024/03/31 11:58:45;;;;;;;14.88;2.03;;;19.50;52.60;;;;;;4999343;28;20488;-91
2024/03/31 12:01:10;;;;;;;14.05;2.47;;;19.80;51.70;;;;;;5015834;28;20026;-90
2024/03/31 12:03:36;;;;;;;12.10;2.90;;;20.10;50.40;;;;;;5017384;28;20029;-90
2024/03/31 12:06:03;;;;;;;13.95;3.50;;;20.20;50.20;;;;;;5016914;28;20026;-88
2024/03/31 12:08:30;;;;;;;13.38;4.03;;;20.40;50.30;;;;;;5013790;28;20041;-90
2024/03/31 12:10:56;;;;;;;7.00;2.10;;;20.50;52.20;;;;;;5010245;28;20093;-90
2024/03/31 12:13:22;;;;;;;12.20;2.00;;;20.80;48.50;;;;;;5016558;28;20109;-89
2024/03/31 12:15:47;;;;;;;10.45;2.03;;;20.90;48.60;;;;;;5016778;28;20056;-91
2024/03/31 12:18:13;;;;;;;14.23;2.42;;;21.40;46.00;;;;;;5016308;28;20059;-90
2024/03/31 12:20:39;;;;;;;9.63;3.33;;;21.50;45.80;;;;;;5016872;28;20026;-89
2024/03/31 12:23:07;;;;;;;9.13;1.73;;;21.30;46.10;;;;;;5016479;28;20156;-90
2024/03/31 12:25:35;;;;;;;9.88;1.90;;;21.20;46.30;;;;;;5016356;28;20088;-90
2024/03/31 12:28:01;;;;;;;9.45;2.17;;;20.80;46.80;;;;;;5013257;28;20033;-90
2024/03/31 12:30:35;;;;;;;10.35;1.75;;;20.40;47.40;;;;;;5019369;28;20049;-90
2024/03/31 12:33:02;;;;;;;14.50;3.20;;;20.30;48.50;;;;;;5020159;28;20037;-90
2024/03/31 12:35:28;;;;;;;9.10;1.88;;;20.20;48.00;;;;;;5016516;28;20477;-90
2024/03/31 12:37:54;;;;;;;11.73;1.60;;;20.30;47.90;;;;;;4998597;28;20182;-90
2024/03/31 12:40:20;;;;;;;11.07;2.00;;;20.10;48.30;;;;;;5016928;28;20621;-91
2024/03/31 12:42:48;;;;;;;12.95;1.95;;;19.90;49.40;;;;;;5020923;28;20030;-90
2024/03/31 12:45:21;;;;;;;15.10;1.95;;;19.80;49.10;;;;;;5016081;28;20054;-89
2024/03/31 12:47:48;;;;;;;11.73;1.70;;;19.80;49.30;;;;;;5015444;28;20029;-92
2024/03/31 12:50:14;;;;;;;13.05;2.22;;;20.00;49.40;;;;;;5016796;28;20029;-90
2024/03/31 12:52:39;;;;;;;12.05;1.58;;;20.00;50.20;;;;;;5016113;28;20489;-90
2024/03/31 12:55:15;;;;;;;10.27;2.45;;;19.90;47.10;;;;;;5000926;28;20036;-87